Time;durP1;ratioP1;P1;durP2;ratioP2;P2;SDS_P1;SDS_P2;PMS_P1;PMS_P2;Temp;Humidity;BMP_temperature;BMP_pressure;BME280_temperature;BME280_humidity;BME280_pressure;Samples;Min_cycle;Max_cycle;Signal;HPM_P1;HPM_P2
2021/11/12 00:13:06;;;;;;;2.25;2.15;;;4.30;99.90;;;;;;5050037;28;20255;-77
2021/11/12 00:15:41;;;;;;;0.10;0.10;;;4.30;99.90;;;;;;5049569;28;20592;-76
2021/11/12 00:18:08;;;;;;;0.68;0.68;;;4.20;99.90;;;;;;5050655;28;20260;-77
2021/11/12 00:20:34;;;;;;;0.82;0.82;;;4.30;99.90;;;;;;5048036;28;20559;-76
2021/11/12 00:23:00;;;;;;;2.63;1.65;;;4.30;99.90;;;;;;5050779;28;20244;-77
2021/11/12 00:25:26;;;;;;;0.20;0.20;;;4.30;99.90;;;;;;5050621;28;20241;-77
2021/11/12 00:27:52;;;;;;;1.92;1.88;;;4.30;99.90;;;;;;5050593;28;20201;-77
2021/11/12 00:30:46;;;;;;;2.38;2.17;;;4.30;99.90;;;;;;5067901;28;20231;-77
2021/11/12 00:36:13;;;;;;;0.85;0.85;;;4.30;99.90;;;;;;5070379;28;20234;-76
2021/11/12 00:38:38;;;;;;;0.80;0.80;;;4.30;99.90;;;;;;5069864;28;20204;-76
2021/11/12 00:41:21;;;;;;;0.40;0.40;;;4.30;99.90;;;;;;5069146;28;20257;-77
2021/11/12 00:43:54;;;;;;;1.50;1.45;;;4.30;99.90;;;;;;5069061;28;20165;-77
2021/11/12 00:46:26;;;;;;;0.32;0.32;;;4.30;99.90;;;;;;5068951;28;20161;-77
2021/11/12 00:48:55;;;;;;;0.63;0.63;;;4.30;99.90;;;;;;5068758;28;20207;-77
2021/11/12 00:56:20;;;;;;;0.10;0.10;;;4.30;99.90;;;;;;5059865;28;20315;-78
2021/11/12 00:58:46;;;;;;;1.42;1.35;;;4.30;99.90;;;;;;5050030;28;20189;-79
2021/11/12 01:01:13;;;;;;;0.70;0.70;;;4.40;99.90;;;;;;5048634;28;20203;-78
2021/11/12 01:03:40;;;;;;;0.88;0.88;;;4.30;99.90;;;;;;5048746;28;20192;-79
2021/11/12 01:06:07;;;;;;;6.25;0.95;;;4.40;99.90;;;;;;5048769;28;20165;-78
2021/11/12 01:08:33;;;;;;;0.80;0.80;;;4.40;99.90;;;;;;5049100;28;20244;-78
2021/11/12 01:10:59;;;;;;;1.33;1.23;;;4.50;99.90;;;;;;5049751;28;20177;-78
2021/11/12 01:13:26;;;;;;;1.35;1.25;;;4.40;99.90;;;;;;5049872;28;20223;-78
2021/11/12 01:15:54;;;;;;;0.22;0.22;;;4.40;99.90;;;;;;5049683;28;20157;-78
2021/11/12 01:18:21;;;;;;;4.47;1.85;;;4.40;99.90;;;;;;5064960;28;20229;-74
2021/11/12 01:20:48;;;;;;;0.57;0.57;;;4.40;99.90;;;;;;5048206;28;20676;-74
2021/11/12 01:23:14;;;;;;;1.27;1.27;;;4.40;99.90;;;;;;5049496;28;20233;-74
2021/11/12 01:25:40;;;;;;;0.40;0.40;;;4.40;99.90;;;;;;5049494;28;20554;-74
2021/11/12 01:28:07;;;;;;;0.80;0.80;;;4.40;99.90;;;;;;5053138;28;20176;-74
2021/11/12 01:30:33;;;;;;;0.52;0.52;;;4.40;99.90;;;;;;5069445;28;20167;-73
2021/11/12 01:33:00;;;;;;;1.33;1.27;;;4.30;99.90;;;;;;5069455;28;20165;-74
2021/11/12 01:35:26;;;;;;;0.47;0.47;;;4.40;99.90;;;;;;5069305;28;20223;-74
2021/11/12 01:37:54;;;;;;;0.40;0.40;;;4.30;99.90;;;;;;5069264;28;20196;-74
2021/11/12 01:40:21;;;;;;;0.17;0.17;;;4.30;99.90;;;;;;5051095;28;20211;-74
2021/11/12 01:43:01;;;;;;;2.38;2.28;;;4.30;99.90;;;;;;5049094;28;20153;-74
2021/11/12 01:45:41;;;;;;;1.30;1.30;;;4.30;99.90;;;;;;5049015;28;20177;-73
2021/11/12 01:50:37;;;;;;;0.43;0.43;;;4.30;99.90;;;;;;5049145;28;20665;-74
2021/11/12 01:53:12;;;;;;;0.75;0.75;;;4.30;99.90;;;;;;5049111;28;20177;-75
2021/11/12 01:55:48;;;;;;;0.95;0.95;;;4.40;99.90;;;;;;5053405;28;20266;-73
2021/11/12 02:00:49;;;;;;;0.25;0.25;;;4.40;99.90;;;;;;5069126;28;20188;-73
2021/11/12 02:03:15;;;;;;;2.15;2.05;;;4.40;99.90;;;;;;5068981;28;20157;-74
2021/11/12 02:05:41;;;;;;;0.85;0.85;;;4.30;99.90;;;;;;5068952;28;20577;-74
2021/11/12 02:08:10;;;;;;;1.67;1.65;;;4.40;99.90;;;;;;5068670;28;20161;-74
2021/11/12 02:10:36;;;;;;;3.38;1.67;;;4.30;99.90;;;;;;5068700;28;20196;-75
2021/11/12 02:13:14;;;;;;;0.80;0.80;;;4.30;99.90;;;;;;5067365;28;20164;-75
2021/11/12 02:15:42;;;;;;;3.13;1.75;;;4.30;99.90;;;;;;5068878;28;20167;-75
2021/11/12 02:18:15;;;;;;;0.30;0.30;;;4.40;99.90;;;;;;5067524;28;20236;-73
2021/11/12 02:21:05;;;;;;;0.47;0.47;;;4.40;99.90;;;;;;5071269;28;20200;-73
2021/11/12 02:23:39;;;;;;;0.10;0.10;;;4.40;99.90;;;;;;5071872;28;20156;-73
2021/11/12 02:26:09;;;;;;;0.10;0.10;;;4.40;99.90;;;;;;5071219;28;20163;-73
2021/11/12 02:28:39;;;;;;;0.20;0.20;;;4.40;99.90;;;;;;5071018;28;20188;-73
2021/11/12 02:31:05;;;;;;;0.68;0.68;;;4.40;99.90;;;;;;5071411;28;20256;-73
2021/11/12 02:33:33;;;;;;;0.40;0.40;;;4.40;99.90;;;;;;5072710;28;20176;-73
2021/11/12 02:36:12;;;;;;;0.63;0.63;;;4.40;99.90;;;;;;5071104;28;20176;-73
2021/11/12 02:38:42;;;;;;;0.38;0.38;;;4.40;99.90;;;;;;5072606;28;20207;-74
2021/11/12 02:41:08;;;;;;;0.15;0.15;;;4.40;99.90;;;;;;5071225;28;20196;-74
2021/11/12 02:43:36;;;;;;;0.10;0.10;;;4.30;99.90;;;;;;5072654;28;20164;-74
2021/11/12 02:46:05;;;;;;;0.65;0.65;;;4.30;99.90;;;;;;5071266;28;20245;-74
2021/11/12 02:48:35;;;;;;;0.32;0.32;;;4.30;99.90;;;;;;5072411;28;20188;-74
2021/11/12 02:51:02;;;;;;;0.85;0.38;;;4.30;99.90;;;;;;5071262;28;20176;-74
2021/11/12 02:53:28;;;;;;;0.95;0.95;;;4.30;99.90;;;;;;5071115;28;20287;-74
2021/11/12 02:55:59;;;;;;;0.20;0.20;;;4.30;99.90;;;;;;5065326;28;20217;-72
2021/11/12 02:58:25;;;;;;;0.35;0.35;;;4.30;99.90;;;;;;5052151;28;20220;-72
2021/11/12 03:00:51;;;;;;;2.20;0.85;;;4.30;99.90;;;;;;5050801;28;20197;-73
2021/11/12 03:03:18;;;;;;;0.30;0.22;;;4.30;99.90;;;;;;5052182;28;20173;-73
2021/11/12 03:05:44;;;;;;;9.07;1.65;;;4.30;99.90;;;;;;5050789;28;20220;-73
2021/11/12 03:08:10;;;;;;;2.10;1.08;;;4.30;99.90;;;;;;5051997;28;20154;-74
2021/11/12 03:10:37;;;;;;;0.10;0.10;;;4.30;99.90;;;;;;5050673;28;20261;-74
2021/11/12 03:13:03;;;;;;;0.10;0.10;;;4.20;99.90;;;;;;5050631;28;20256;-73
2021/11/12 03:15:29;;;;;;;0.65;0.65;;;4.30;99.90;;;;;;5051830;28;20161;-74
2021/11/12 03:17:58;;;;;;;0.10;0.10;;;4.30;99.90;;;;;;5050590;28;20166;-74
2021/11/12 03:20:26;;;;;;;0.10;0.10;;;4.30;99.90;;;;;;5050532;28;20678;-74
2021/11/12 03:23:06;;;;;;;0.10;0.10;;;4.20;99.90;;;;;;5050846;28;20173;-73
2021/11/12 03:25:45;;;;;;;0.55;0.50;;;4.20;99.90;;;;;;5050752;28;20185;-74
2021/11/12 04:20:35;;;;;;;0.47;0.47;;;4.50;99.90;;;;;;5070688;28;20295;-74
2021/11/12 05:02:40;;;;;;;0.10;0.10;;;4.50;99.90;;;;;;5049924;28;20215;-74
2021/11/12 05:34:27;;;;;;;0.80;0.77;;;4.50;99.90;;;;;;5049326;28;20180;-75
2021/11/12 05:50:17;;;;;;;1.48;1.40;;;4.60;99.90;;;;;;5049197;28;20167;-75
2021/11/12 05:55:27;;;;;;;0.98;0.98;;;4.70;99.90;;;;;;5048516;28;20239;-74
2021/11/12 05:57:53;;;;;;;1.42;1.02;;;4.70;99.90;;;;;;5049025;28;20173;-74
2021/11/12 06:00:20;;;;;;;0.68;0.68;;;4.70;99.90;;;;;;5048601;28;20197;-74
2021/11/12 06:02:46;;;;;;;1.42;1.40;;;4.70;99.90;;;;;;5060608;28;20169;-75
2021/11/12 06:05:15;;;;;;;0.10;0.10;;;4.60;99.90;;;;;;5061195;28;20169;-74
2021/11/12 06:07:41;;;;;;;0.20;0.20;;;4.50;99.90;;;;;;5084530;28;20170;-74
2021/11/12 06:10:07;;;;;;;0.10;0.10;;;4.50;99.90;;;;;;5079404;28;20235;-75
2021/11/12 06:12:33;;;;;;;0.35;0.35;;;4.50;99.90;;;;;;5079517;28;20167;-74
2021/11/12 06:14:59;;;;;;;0.30;0.30;;;4.50;99.90;;;;;;5073623;28;20168;-74
2021/11/12 06:17:25;;;;;;;1.02;1.02;;;4.50;99.90;;;;;;5085110;28;20191;-74
2021/11/12 06:19:52;;;;;;;2.15;1.75;;;4.40;99.90;;;;;;5072104;28;20207;-75
2021/11/12 06:22:18;;;;;;;3.63;3.30;;;4.40;99.90;;;;;;5079145;28;20677;-75
2021/11/12 06:24:44;;;;;;;0.10;0.10;;;4.40;99.90;;;;;;5079982;28;20168;-74
2021/11/12 06:27:10;;;;;;;0.32;0.32;;;4.40;99.90;;;;;;5070950;28;20172;-76
2021/11/12 06:29:36;;;;;;;0.13;0.13;;;4.40;99.90;;;;;;5055485;28;20274;-75
2021/11/12 06:32:03;;;;;;;1.05;0.93;;;4.40;99.90;;;;;;5088327;28;20160;-75
2021/11/12 06:34:30;;;;;;;0.93;0.93;;;4.40;99.90;;;;;;5080371;28;20164;-75
2021/11/12 06:36:55;;;;;;;0.22;0.22;;;4.40;99.90;;;;;;5077543;28;20206;-76
2021/11/12 06:39:22;;;;;;;0.90;0.90;;;4.50;99.90;;;;;;5086475;28;20203;-75
2021/11/12 06:49:56;;;;;;;1.15;1.15;;;4.50;99.90;;;;;;5048479;28;20228;-76
2021/11/12 06:52:25;;;;;;;1.75;1.55;;;4.50;99.90;;;;;;5048587;28;20174;-75
2021/11/12 06:54:52;;;;;;;0.40;0.40;;;4.60;99.90;;;;;;5048129;28;20248;-75
2021/11/12 06:57:20;;;;;;;1.10;1.10;;;4.60;99.90;;;;;;5047003;28;20201;-75
2021/11/12 06:59:47;;;;;;;0.10;0.10;;;4.60;99.90;;;;;;5046751;28;20208;-75
2021/11/12 07:02:16;;;;;;;2.40;0.43;;;4.50;99.90;;;;;;5048296;28;20253;-76
2021/11/12 07:04:42;;;;;;;1.65;1.55;;;4.50;99.90;;;;;;5048511;28;20177;-76
2021/11/12 07:07:08;;;;;;;0.05;0.05;;;4.50;99.90;;;;;;5050846;28;20240;-75
2021/11/12 07:09:36;;;;;;;0.35;0.35;;;4.50;99.90;;;;;;5050585;28;20223;-75
2021/11/12 07:12:02;;;;;;;0.17;0.17;;;4.40;99.90;;;;;;5049550;28;20259;-75
2021/11/12 07:14:28;;;;;;;0.10;0.10;;;4.50;99.90;;;;;;5051660;28;20172;-75
2021/11/12 07:16:54;;;;;;;2.08;1.98;;;4.50;99.90;;;;;;5051784;28;20204;-74
2021/11/12 07:19:20;;;;;;;1.35;1.13;;;4.50;99.90;;;;;;5051723;28;20161;-74
2021/11/12 07:21:46;;;;;;;0.20;0.20;;;4.50;99.90;;;;;;5050558;28;20162;-75
2021/11/12 07:24:13;;;;;;;0.15;0.15;;;4.60;99.90;;;;;;5050333;28;20595;-75
2021/11/12 07:26:40;;;;;;;1.02;0.90;;;4.50;99.90;;;;;;5051701;28;20196;-75
2021/11/12 07:29:06;;;;;;;0.20;0.20;;;4.50;99.90;;;;;;5051814;28;20237;-75
2021/11/12 07:31:32;;;;;;;14.65;1.88;;;4.60;99.90;;;;;;5050345;28;20172;-75
2021/11/12 07:34:00;;;;;;;0.50;0.50;;;4.60;99.90;;;;;;5050307;28;20166;-74
2021/11/12 07:36:35;;;;;;;0.32;0.32;;;4.60;99.90;;;;;;5050261;28;20661;-74
2021/11/12 07:39:19;;;;;;;0.10;0.10;;;4.50;99.90;;;;;;5050487;28;20176;-75
2021/11/12 07:47:16;;;;;;;1.38;1.27;;;4.50;99.90;;;;;;5051463;28;20205;-76
2021/11/12 07:49:46;;;;;;;1.25;1.17;;;4.50;99.90;;;;;;5050099;28;20169;-76
2021/11/12 07:52:14;;;;;;;1.60;1.00;;;4.60;99.90;;;;;;5051414;28;20347;-76
2021/11/12 07:54:41;;;;;;;1.65;0.60;;;4.60;99.90;;;;;;5050176;28;20189;-80
2021/11/12 07:57:08;;;;;;;0.40;0.40;;;4.70;99.90;;;;;;5030368;28;20268;-82
2021/11/12 07:59:35;;;;;;;2.08;1.98;;;4.70;99.90;;;;;;5030328;28;20234;-81
2021/11/12 08:02:02;;;;;;;0.85;0.80;;;4.80;99.90;;;;;;5030206;28;20166;-80
2021/11/12 08:04:28;;;;;;;0.38;0.38;;;4.80;99.90;;;;;;5031354;28;20154;-79
2021/11/12 08:06:56;;;;;;;10.63;3.88;;;4.80;99.90;;;;;;5029833;28;20189;-80
2021/11/12 08:09:52;;;;;;;0.88;0.88;;;4.80;99.90;;;;;;5030111;28;20170;-83
2021/11/12 08:12:23;;;;;;;1.02;0.98;;;4.70;99.90;;;;;;5031935;28;20275;-82
2021/11/12 08:15:03;;;;;;;0.35;0.35;;;4.70;99.90;;;;;;5029972;28;20631;-83
2021/11/12 08:20:36;;;;;;;0.30;0.30;;;5.00;99.90;;;;;;5029215;28;20212;-79
2021/11/12 08:23:18;;;;;;;0.30;0.30;;;5.00;99.90;;;;;;5036463;28;20182;-79
2021/11/12 08:37:00;;;;;;;0.65;0.60;;;5.00;99.90;;;;;;4990203;28;20206;-78
2021/11/12 08:42:02;;;;;;;0.30;0.30;;;4.90;99.90;;;;;;4989143;28;20283;-81
2021/11/12 08:44:35;;;;;;;0.55;0.55;;;4.90;99.90;;;;;;4989543;28;20178;-82
2021/11/12 08:47:09;;;;;;;0.43;0.43;;;4.90;99.90;;;;;;4989001;28;20186;-79
2021/11/12 08:49:38;;;;;;;1.10;0.75;;;5.00;99.90;;;;;;4989011;28;20228;-79
2021/11/12 08:52:04;;;;;;;2.95;0.73;;;5.10;99.90;;;;;;4988746;28;20207;-79
2021/11/12 08:54:35;;;;;;;0.10;0.10;;;5.20;99.90;;;;;;4988428;28;20186;-81
2021/11/12 08:57:06;;;;;;;0.30;0.30;;;5.20;99.90;;;;;;4972763;28;20250;-80
2021/11/12 08:59:34;;;;;;;0.10;0.10;;;5.20;99.90;;;;;;4988754;28;20206;-80
2021/11/12 09:02:00;;;;;;;0.50;0.50;;;5.40;99.90;;;;;;4989005;28;20279;-80
2021/11/12 09:04:27;;;;;;;0.30;0.30;;;5.40;99.90;;;;;;4986241;28;20179;-79
2021/11/12 09:06:53;;;;;;;1.10;1.10;;;5.20;99.90;;;;;;4953218;29;20199;-75
2021/11/12 09:09:19;;;;;;;1.35;1.27;;;5.30;99.90;;;;;;5026532;28;20213;-75
2021/11/12 09:11:46;;;;;;;1.65;1.58;;;5.20;99.90;;;;;;5028629;28;20224;-75
2021/11/12 09:14:18;;;;;;;0.60;0.60;;;5.30;99.90;;;;;;5028848;28;20170;-76
2021/11/12 09:16:46;;;;;;;1.55;1.45;;;5.40;99.90;;;;;;5029293;28;20189;-75
2021/11/12 09:19:15;;;;;;;0.77;0.75;;;5.40;99.90;;;;;;5029986;28;20154;-75
2021/11/12 09:21:50;;;;;;;0.25;0.25;;;5.40;99.90;;;;;;5028117;28;20213;-75
2021/11/12 09:24:16;;;;;;;0.88;0.88;;;5.50;99.90;;;;;;5029813;28;20157;-75
2021/11/12 09:26:43;;;;;;;7.10;2.00;;;5.50;99.90;;;;;;5022149;28;20201;-76
2021/11/12 09:29:34;;;;;;;1.55;1.48;;;5.30;99.90;;;;;;5018937;28;20231;-75
2021/11/12 09:32:08;;;;;;;1.23;1.23;;;5.20;99.90;;;;;;5029403;28;20222;-75
2021/11/12 09:34:37;;;;;;;0.57;0.57;;;5.10;99.90;;;;;;5028531;28;20273;-74
2021/11/12 09:37:06;;;;;;;1.08;1.08;;;5.20;99.90;;;;;;5027657;28;20256;-75
2021/11/12 09:39:33;;;;;;;3.00;1.70;;;5.20;99.90;;;;;;5029081;28;20203;-74
2021/11/12 09:42:01;;;;;;;0.90;0.90;;;5.30;99.90;;;;;;5029448;28;20194;-75
2021/11/12 09:44:27;;;;;;;0.70;0.60;;;5.30;99.90;;;;;;5029637;28;20158;-75
2021/11/12 09:46:53;;;;;;;1.40;0.85;;;5.30;99.90;;;;;;5027903;28;20189;-75
2021/11/12 09:49:20;;;;;;;0.73;0.73;;;5.50;99.90;;;;;;5031992;28;20166;-74
2021/11/12 09:51:46;;;;;;;0.20;0.20;;;5.60;99.90;;;;;;5029317;28;20185;-75
2021/11/12 09:54:12;;;;;;;0.20;0.20;;;5.80;99.90;;;;;;5028508;28;20182;-77
2021/11/12 09:56:38;;;;;;;0.52;0.52;;;5.90;99.90;;;;;;5062714;28;20435;-78
2021/11/12 09:59:05;;;;;;;1.50;1.48;;;5.90;99.90;;;;;;5069207;28;20252;-76
2021/11/12 10:01:35;;;;;;;0.30;0.30;;;5.90;99.90;;;;;;5071623;28;20203;-78
2021/11/12 10:04:08;;;;;;;0.40;0.40;;;6.00;99.90;;;;;;5072901;28;20180;-78
2021/11/12 10:06:36;;;;;;;0.55;0.55;;;6.00;99.90;;;;;;5068811;28;20179;-76
2021/11/12 10:09:13;;;;;;;0.40;0.40;;;5.90;99.90;;;;;;5068846;28;20421;-78
2021/11/12 10:11:53;;;;;;;0.50;0.50;;;5.70;99.90;;;;;;5072234;28;21739;-77
2021/11/12 10:14:36;;;;;;;0.20;0.20;;;5.30;99.90;;;;;;5071839;28;20184;-77
2021/11/12 10:17:03;;;;;;;0.45;0.45;;;5.20;99.90;;;;;;5072401;28;20228;-77
2021/11/12 10:19:29;;;;;;;2.20;2.05;;;5.10;99.90;;;;;;5069469;28;20180;-76
2021/11/12 10:22:00;;;;;;;0.20;0.20;;;5.00;99.90;;;;;;5072525;28;20326;-76
2021/11/12 10:24:30;;;;;;;0.50;0.50;;;5.00;99.90;;;;;;5071587;28;20163;-77
2021/11/12 10:27:00;;;;;;;0.70;0.70;;;5.00;99.90;;;;;;5071601;28;20172;-77
2021/11/12 10:29:29;;;;;;;0.65;0.65;;;5.10;99.90;;;;;;5067708;28;20165;-76
2021/11/12 10:32:02;;;;;;;0.50;0.50;;;5.00;99.90;;;;;;5072139;28;20640;-77
2021/11/12 10:34:31;;;;;;;1.88;1.77;;;5.00;99.90;;;;;;5071696;28;20168;-78
2021/11/12 10:36:59;;;;;;;0.47;0.47;;;5.00;99.90;;;;;;5066237;28;20164;-76
2021/11/12 10:39:32;;;;;;;0.10;0.10;;;5.00;99.90;;;;;;5070345;28;20160;-78
2021/11/12 10:42:00;;;;;;;0.40;0.40;;;5.10;99.90;;;;;;5073342;28;20207;-78
2021/11/12 10:44:28;;;;;;;0.40;0.32;;;5.10;99.90;;;;;;5074916;28;20703;-78
2021/11/12 10:46:54;;;;;;;0.45;0.45;;;5.20;99.90;;;;;;5070358;28;20169;-75
2021/11/12 10:49:29;;;;;;;0.38;0.38;;;5.30;99.90;;;;;;5074677;28;20165;-76
2021/11/12 10:52:03;;;;;;;2.17;0.77;;;5.40;99.90;;;;;;5074593;28;20207;-76
2021/11/12 10:54:49;;;;;;;1.13;1.13;;;5.50;99.90;;;;;;5075006;28;20167;-77
2021/11/12 10:57:17;;;;;;;0.60;0.60;;;5.60;99.90;;;;;;5079117;28;20192;-75
2021/11/12 11:00:05;;;;;;;1.23;1.23;;;5.50;99.90;;;;;;5058500;28;21342;-76
2021/11/12 11:02:42;;;;;;;1.33;0.82;;;5.40;99.90;;;;;;5070703;28;20216;-75
2021/11/12 11:05:12;;;;;;;0.45;0.45;;;5.30;99.90;;;;;;5070692;28;20172;-74
2021/11/12 11:07:39;;;;;;;1.75;0.50;;;5.40;99.90;;;;;;5057644;28;20170;-75
2021/11/12 11:10:20;;;;;;;1.55;0.73;;;5.50;99.90;;;;;;5051374;28;20162;-74
2021/11/12 11:12:45;;;;;;;0.30;0.30;;;5.50;99.90;;;;;;5050642;28;20208;-75
2021/11/12 11:15:21;;;;;;;0.52;0.52;;;5.40;99.90;;;;;;5056658;28;20173;-75
2021/11/12 11:18:06;;;;;;;0.47;0.45;;;5.50;99.90;;;;;;5070453;28;20172;-75
2021/11/12 11:20:40;;;;;;;0.90;0.90;;;5.50;99.90;;;;;;5071244;28;20251;-75
2021/11/12 11:23:05;;;;;;;0.10;0.10;;;5.30;99.90;;;;;;5070376;28;20168;-75
2021/11/12 11:25:31;;;;;;;0.50;0.50;;;5.10;99.90;;;;;;5070501;28;20168;-74
2021/11/12 11:28:00;;;;;;;0.30;0.30;;;5.10;99.90;;;;;;5070415;28;20190;-75
2021/11/12 11:30:27;;;;;;;0.52;0.52;;;5.20;99.90;;;;;;5070231;28;20175;-74
2021/11/12 11:32:53;;;;;;;2.28;1.50;;;5.20;99.90;;;;;;5059387;28;20223;-75
2021/11/12 11:35:20;;;;;;;0.38;0.38;;;5.10;99.90;;;;;;5054316;28;20180;-74
2021/11/12 11:37:52;;;;;;;0.20;0.20;;;5.10;99.90;;;;;;5066614;28;20169;-75
2021/11/12 11:40:20;;;;;;;0.10;0.10;;;5.20;99.90;;;;;;5049556;28;20195;-74
2021/11/12 11:42:46;;;;;;;0.10;0.10;;;5.30;99.90;;;;;;5083618;28;20278;-75
2021/11/12 11:45:17;;;;;;;0.30;0.30;;;5.50;99.90;;;;;;5090006;28;20175;-75
2021/11/12 11:47:45;;;;;;;0.30;0.30;;;5.50;99.90;;;;;;5091042;28;20208;-75
2021/11/12 11:50:23;;;;;;;0.52;0.52;;;5.30;99.90;;;;;;5090100;28;20642;-75
2021/11/12 11:52:49;;;;;;;5.70;1.40;;;5.30;99.90;;;;;;5070531;28;20164;-74
2021/11/12 11:55:34;;;;;;;0.25;0.25;;;5.40;99.90;;;;;;5069587;28;20585;-75
2021/11/12 11:58:31;;;;;;;0.20;0.20;;;5.40;99.90;;;;;;5069739;28;20204;-75
2021/11/12 12:01:33;;;;;;;0.35;0.35;;;5.10;99.90;;;;;;5050390;28;20550;-75
2021/11/12 12:04:11;;;;;;;0.60;0.60;;;5.10;99.90;;;;;;5059089;28;20182;-75
2021/11/12 12:06:39;;;;;;;2.30;1.55;;;5.10;99.90;;;;;;5064629;28;20173;-75
2021/11/12 12:09:08;;;;;;;0.35;0.35;;;5.00;99.90;;;;;;5086021;28;20179;-75
2021/11/12 12:11:52;;;;;;;1.35;1.27;;;5.00;99.90;;;;;;5090717;28;20228;-76
2021/11/12 12:14:23;;;;;;;0.35;0.35;;;5.00;99.90;;;;;;5089050;28;20178;-75
2021/11/12 12:17:04;;;;;;;0.10;0.10;;;5.00;99.90;;;;;;5090706;28;20164;-75
2021/11/12 12:33:54;;;;;;;0.10;0.10;;;5.20;99.90;;;;;;5053702;28;20209;-75
2021/11/12 13:25:33;;;;;;;1.15;1.05;;;5.20;99.90;;;;;;5049525;28;20200;-75
2021/11/12 13:28:24;;;;;;;0.10;0.10;;;5.30;99.90;;;;;;5049532;28;20157;-75
2021/11/12 13:31:05;;;;;;;0.50;0.50;;;5.30;99.90;;;;;;5047970;28;20192;-75
2021/11/12 13:33:34;;;;;;;0.10;0.10;;;5.40;99.90;;;;;;5049245;28;20524;-76
2021/11/12 13:36:30;;;;;;;0.20;0.20;;;5.40;99.90;;;;;;5057047;28;20211;-75
2021/11/12 13:39:19;;;;;;;0.50;0.50;;;5.40;99.90;;;;;;5052192;28;20199;-76
2021/11/12 13:41:49;;;;;;;1.83;1.73;;;5.40;99.90;;;;;;5067218;28;20194;-77
2021/11/12 13:44:21;;;;;;;0.40;0.40;;;5.30;99.90;;;;;;5075280;28;20194;-75
2021/11/12 13:46:59;;;;;;;0.10;0.10;;;5.30;99.90;;;;;;5076650;28;20165;-76
2021/11/12 13:49:34;;;;;;;1.55;1.45;;;5.40;99.90;;;;;;5083879;28;20176;-75
2021/11/12 13:52:11;;;;;;;0.20;0.20;;;5.40;99.90;;;;;;5073986;28;20534;-76
2021/11/12 13:55:04;;;;;;;1.55;1.33;;;5.30;99.90;;;;;;5077196;28;20320;-75
2021/11/12 13:57:30;;;;;;;0.20;0.20;;;5.30;99.90;;;;;;5083268;28;20180;-75
2021/11/12 14:00:06;;;;;;;0.10;0.10;;;5.10;99.90;;;;;;5071630;28;20207;-75
2021/11/12 14:03:14;;;;;;;0.47;0.47;;;5.10;99.90;;;;;;5058833;28;20181;-76
2021/11/12 14:05:52;;;;;;;0.52;0.52;;;5.00;99.90;;;;;;5075362;28;20169;-76
2021/11/12 14:08:18;;;;;;;0.25;0.25;;;4.90;99.90;;;;;;5078501;28;20279;-75
2021/11/12 14:10:51;;;;;;;1.27;1.27;;;5.00;99.90;;;;;;5046104;28;20211;-76
2021/11/12 14:13:20;;;;;;;1.38;0.95;;;5.00;99.90;;;;;;5047098;28;20181;-75
2021/11/12 14:16:08;;;;;;;1.65;1.38;;;5.00;99.90;;;;;;5048089;28;20179;-75
2021/11/12 14:21:33;;;;;;;0.10;0.10;;;5.00;99.90;;;;;;5048763;28;20205;-75
2021/11/12 14:32:37;;;;;;;0.90;0.90;;;4.90;99.90;;;;;;5048855;28;20599;-75
2021/11/12 14:49:36;;;;;;;0.32;0.32;;;5.20;99.90;;;;;;5046415;28;20181;-75
2021/11/12 14:52:16;;;;;;;0.15;0.15;;;5.10;99.90;;;;;;5046507;28;20201;-75
2021/11/12 14:54:47;;;;;;;0.20;0.20;;;5.00;99.90;;;;;;5046188;28;20239;-77
2021/11/12 14:59:56;;;;;;;0.20;0.20;;;5.20;99.90;;;;;;5046198;28;20224;-75
2021/11/12 15:02:22;;;;;;;1.10;1.00;;;5.20;99.90;;;;;;5046281;28;20193;-75
2021/11/12 15:04:48;;;;;;;0.13;0.13;;;5.10;99.90;;;;;;5046177;28;20181;-75
2021/11/12 15:07:20;;;;;;;0.63;0.57;;;5.00;99.90;;;;;;5029690;28;20185;-75
2021/11/12 15:09:48;;;;;;;0.65;0.65;;;5.00;99.90;;;;;;5029719;28;20223;-76
2021/11/12 15:12:14;;;;;;;0.30;0.30;;;5.00;99.90;;;;;;5046046;28;20204;-75
2021/11/12 15:14:46;;;;;;;0.45;0.45;;;4.90;99.90;;;;;;5046327;28;20154;-75
2021/11/12 15:17:12;;;;;;;1.60;1.50;;;4.90;99.90;;;;;;5029562;28;20169;-75
2021/11/12 15:19:41;;;;;;;1.55;1.38;;;4.90;99.90;;;;;;5046148;28;20253;-75
2021/11/12 15:30:06;;;;;;;0.75;0.75;;;4.70;99.90;;;;;;5069517;28;20164;-75
2021/11/12 15:32:35;;;;;;;0.70;0.70;;;4.70;99.90;;;;;;5069553;28;20156;-75
2021/11/12 15:35:10;;;;;;;0.28;0.28;;;4.70;99.90;;;;;;5069414;28;20286;-75
2021/11/12 15:40:16;;;;;;;0.25;0.25;;;4.80;99.90;;;;;;5069297;28;20196;-75
2021/11/12 15:48:17;;;;;;;0.32;0.32;;;4.80;99.90;;;;;;5048915;28;20189;-76
2021/11/12 16:11:56;;;;;;;0.10;0.10;;;4.60;99.90;;;;;;5070998;28;20263;-76
2021/11/12 16:14:27;;;;;;;0.10;0.10;;;4.60;99.90;;;;;;5049684;28;20180;-75
2021/11/12 16:25:10;;;;;;;0.10;0.10;;;4.70;99.90;;;;;;5070866;28;20153;-75
2021/11/12 16:27:15;;;;;;;1.02;1.02;;;4.60;99.90;;;;;;5072789;28;20240;-75
2021/11/12 16:29:44;;;;;;;0.17;0.17;;;4.60;99.90;;;;;;5069328;28;20172;-75
2021/11/12 16:32:21;;;;;;;0.57;0.57;;;4.60;99.90;;;;;;5070523;28;20238;-75
2021/11/12 16:34:50;;;;;;;0.73;0.73;;;4.60;99.90;;;;;;5069366;28;20226;-75
2021/11/12 16:37:20;;;;;;;0.95;0.95;;;4.70;99.90;;;;;;5069329;28;20619;-75
2021/11/12 16:40:31;;;;;;;0.20;0.20;;;4.70;99.90;;;;;;5069600;28;20185;-75
2021/11/12 16:47:38;;;;;;;0.20;0.20;;;4.80;99.90;;;;;;5070319;28;20207;-76
2021/11/12 16:50:17;;;;;;;0.10;0.10;;;4.90;99.90;;;;;;5070257;28;20195;-76
2021/11/12 17:04:15;;;;;;;0.98;0.63;;;4.70;99.90;;;;;;5070090;28;20213;-76
2021/11/12 17:14:09;;;;;;;0.57;0.57;;;4.80;99.90;;;;;;5065530;28;20676;-75
2021/11/12 17:44:48;;;;;;;2.30;1.00;;;4.60;99.90;;;;;;5069696;28;20164;-75
2021/11/12 17:46:45;;;;;;;0.10;0.10;;;4.80;99.90;;;;;;5067028;28;20169;-76
2021/11/12 17:49:21;;;;;;;2.10;0.93;;;4.80;99.90;;;;;;5050169;28;20196;-76
2021/11/12 18:02:32;;;;;;;0.10;0.10;;;4.80;99.90;;;;;;5058960;28;20179;-75
2021/11/12 18:10:41;;;;;;;3.15;0.75;;;4.90;99.90;;;;;;5057387;28;20200;-75
2021/11/12 21:45:51;;;;;;;0.40;0.40;;;4.40;99.90;;;;;;5069525;28;20163;-75
2021/11/12 21:48:18;;;;;;;0.22;0.22;;;4.30;99.90;;;;;;5068101;28;20157;-74
2021/11/12 21:50:45;;;;;;;0.77;0.77;;;4.30;99.90;;;;;;5069388;28;20160;-74
2021/11/12 21:53:11;;;;;;;0.28;0.28;;;4.30;99.90;;;;;;5066880;28;20200;-75
2021/11/12 21:55:37;;;;;;;0.20;0.20;;;4.30;99.90;;;;;;5068943;28;20223;-74
2021/11/12 21:58:03;;;;;;;0.10;0.10;;;4.20;99.90;;;;;;5068097;28;20559;-75
2021/11/12 22:00:31;;;;;;;0.10;0.10;;;4.20;99.90;;;;;;5067704;28;20203;-76
2021/11/12 22:02:58;;;;;;;0.08;0.08;;;4.30;99.90;;;;;;5069213;28;20189;-76
2021/11/12 22:05:24;;;;;;;0.10;0.10;;;4.30;99.90;;;;;;5069214;28;20153;-76
2021/11/12 22:07:49;;;;;;;1.10;1.10;;;4.30;99.90;;;;;;5067796;28;20169;-75
2021/11/12 22:10:16;;;;;;;0.63;0.40;;;4.20;99.90;;;;;;5069158;28;20172;-75
2021/11/12 22:12:42;;;;;;;0.10;0.10;;;4.20;99.90;;;;;;5069047;28;20207;-76
2021/11/12 22:15:10;;;;;;;0.10;0.10;;;4.20;99.90;;;;;;5067721;28;20231;-75
2021/11/12 22:17:36;;;;;;;0.98;0.95;;;4.20;99.90;;;;;;5069003;28;20748;-75
2021/11/12 22:20:04;;;;;;;0.20;0.20;;;4.20;99.90;;;;;;5067751;28;20172;-75
2021/11/12 22:22:31;;;;;;;0.30;0.30;;;4.20;99.90;;;;;;5067628;28;20204;-76
2021/11/12 22:24:57;;;;;;;0.10;0.10;;;4.20;99.90;;;;;;5068808;28;20164;-75
2021/11/12 22:27:23;;;;;;;0.20;0.20;;;4.20;99.90;;;;;;5068879;28;20164;-77
2021/11/12 22:29:48;;;;;;;1.30;1.20;;;4.20;99.90;;;;;;5063516;28;20243;-75
2021/11/12 22:32:14;;;;;;;0.10;0.10;;;4.20;99.90;;;;;;5063431;28;20204;-75
2021/11/12 22:34:40;;;;;;;0.30;0.30;;;4.20;99.90;;;;;;5068877;28;20185;-75
2021/11/12 22:37:06;;;;;;;0.10;0.10;;;4.10;99.90;;;;;;5070369;28;20613;-75
2021/11/12 22:39:32;;;;;;;0.90;0.40;;;4.10;99.90;;;;;;5072975;28;20161;-75
2021/11/12 22:41:58;;;;;;;0.40;0.40;;;4.10;99.90;;;;;;5071497;28;20219;-75
2021/11/12 22:44:24;;;;;;;0.10;0.10;;;4.10;99.90;;;;;;5062503;28;20181;-76
2021/11/12 22:46:50;;;;;;;0.10;0.10;;;4.20;99.90;;;;;;5071439;28;20180;-77
2021/11/12 22:49:16;;;;;;;0.30;0.30;;;4.20;99.90;;;;;;5072658;28;20171;-77
2021/11/12 22:51:42;;;;;;;0.50;0.50;;;4.30;99.90;;;;;;5072161;28;20196;-77
2021/11/12 22:54:09;;;;;;;0.38;0.38;;;4.30;99.90;;;;;;5071185;28;20172;-76
2021/11/12 22:56:35;;;;;;;0.20;0.20;;;4.30;99.90;;;;;;5072263;28;20225;-76
2021/11/12 22:59:01;;;;;;;1.58;0.95;;;4.40;99.90;;;;;;5071305;28;20610;-77
2021/11/12 23:01:30;;;;;;;0.10;0.10;;;4.40;99.90;;;;;;5057189;28;20273;-76
2021/11/12 23:03:57;;;;;;;0.15;0.15;;;4.40;99.90;;;;;;5051762;28;20569;-76
2021/11/12 23:06:23;;;;;;;0.98;0.98;;;4.30;99.90;;;;;;5050804;28;20208;-76
2021/11/12 23:08:50;;;;;;;0.20;0.20;;;4.30;99.90;;;;;;5051858;28;20154;-76
2021/11/12 23:11:18;;;;;;;0.13;0.13;;;4.30;99.90;;;;;;5052403;28;20158;-77
2021/11/12 23:13:47;;;;;;;0.47;0.47;;;4.30;99.90;;;;;;5066947;28;20208;-76
2021/11/12 23:16:15;;;;;;;0.10;0.10;;;4.30;99.90;;;;;;5067491;28;20216;-77
2021/11/12 23:18:42;;;;;;;0.10;0.10;;;4.20;99.90;;;;;;5052270;28;20158;-78
2021/11/12 23:21:08;;;;;;;1.65;1.55;;;4.20;99.90;;;;;;5067574;28;20194;-77
2021/11/12 23:23:39;;;;;;;0.30;0.30;;;4.20;99.90;;;;;;5051448;28;20161;-77